BYU2
, Provo
Last Weather Update:03/29/2012 12:00:00 PM
Date
ETo
ETc
Rain
Irrigation
Req
Temp
Max
Temp
Min
Temp
Avg
Avg RH
Avg Wind
Avg Solar
inches
inches
incehs
inches
F
F
F
%
%
watts/m2
02/01/2012 0.03" 0.00" 0.08" -0.08" 48.3° 26.8° 35.5° 73.4% 1.8 MPH 58.4w/m2
02/02/2012 0.02" 0.00" 0.03" -0.03" 38.0° 32.1° 34.4° 91.6% 2.2 MPH 64.9w/m2
02/03/2012 0.05" 0.00" 0.00" 0.00" 45.4° 24.8° 33.9° 71.3% 1.1 MPH 147.8w/m2
02/04/2012 0.05" 0.00" 0.00" 0.00" 44.2° 24.3° 33.1° 59.9% 1.9 MPH 149.5w/m2
02/05/2012 0.05" 0.00" 0.00" 0.00" 43.8° 22.7° 32.5° 61.9% 0.9 MPH 149.7w/m2
02/06/2012 0.05" 0.00" 0.00" 0.00" 42.5° 25.5° 32.9° 66.7% 1.4 MPH 154.7w/m2
02/07/2012 0.05" 0.00" 0.00" 0.00" 45.0° 22.5° 33.5° 59.2% 1.4 MPH 150.3w/m2
02/08/2012 0.03" 0.00" 0.00" 0.00" 44.7° 32.9° 37.9° 65.2% 1.1 MPH 58.8w/m2
02/09/2012 0.03" 0.00" 0.00" 0.00" 42.2° 31.0° 37.0° 88.5% 0.1 MPH 52.5w/m2
02/10/2012 0.05" 0.00" 0.00" 0.00" 55.0° 35.1° 42.7° 72.8% 1.1 MPH 107.7w/m2
02/11/2012 0.05" 0.00" 0.00" 0.00" 59.5° 31.3° 43.7° 61.8% 2.2 MPH 102.7w/m2
02/12/2012 0.00" 0.00" 0.76" -0.76" 42.2° 32.5° 35.1° 97.3% 1.4 MPH 17.4w/m2
02/13/2012 0.05" 0.00" 0.27" -0.27" 44.8° 33.0° 37.6° 86.5% 0.7 MPH 115.5w/m2
02/14/2012 0.03" 0.00" 0.00" 0.00" 40.7° 33.0° 36.0° 89.5% 1.4 MPH 72.3w/m2
02/15/2012 0.04" 0.00" 0.02" -0.02" 42.5° 31.7° 36.2° 83.8% 1.9 MPH 113.8w/m2
02/16/2012 0.05" 0.00" 0.00" 0.00" 43.5° 30.8° 35.6° 78.4% 2.1 MPH 129.1w/m2
02/17/2012 0.05" 0.00" 0.00" 0.00" 43.2° 24.1° 32.7° 73.4% 1.6 MPH 158.7w/m2
02/18/2012 0.06" 0.00" 0.03" -0.03" 47.3° 24.5° 35.9° 65.2% 1.1 MPH 158.0w/m2
02/19/2012 0.03" 0.00" 0.09" -0.09" 34.7° 26.9° 30.2° 83.5% 2.8 MPH 105.1w/m2
02/20/2012 0.05" 0.00" 0.03" -0.03" 36.7° 22.6° 30.6° 66.3% 2.6 MPH 165.6w/m2
02/21/2012 0.04" 0.00" 0.02" -0.02" 45.5° 32.8° 39.1° 63.8% 2.4 MPH 84.2w/m2
02/22/2012 0.08" 0.00" 0.04" -0.04" 56.2° 39.5° 47.6° 68.7% 3.7 MPH 146.5w/m2
02/23/2012 0.08" 0.00" 0.01" -0.01" 44.8° 28.7° 35.3° 47.9% 8.0 MPH 182.7w/m2
02/24/2012 0.07" 0.00" 0.00" 0.00" 46.7° 23.1° 33.8° 52.5% 1.6 MPH 193.5w/m2
02/25/2012 0.09" 0.00" 0.00" 0.00" 50.9° 27.4° 36.5° 47.2% 6.6 MPH 184.3w/m2
02/26/2012 0.07" 0.00" 0.00" 0.00" 39.0° 23.0° 30.0° 44.1% 3.0 MPH 201.2w/m2
02/27/2012 0.07" 0.00" 0.09" -0.09" 53.1° 29.6° 40.4° 45.4% 3.0 MPH 106.4w/m2
02/28/2012 0.03" 0.00" 0.38" -0.38" 38.1° 28.9° 33.6° 89.4% 2.4 MPH 79.1w/m2
02/29/2012 0.06" 0.00" 0.09" -0.09" 47.1° 29.1° 37.6° 67.2% 3.3 MPH 111.6w/m2
Totals: 1.43" 0.00" 1.94" -1.94" 59.5° 22.5° 35.9° 69.7% 2.2 MPH 121.5w/m2